sensor_id;sensor_type;location;lat;lon;timestamp;pressure;altitude;pressure_sealevel;temperature;humidity
37648;BME280;23490;53.656;10.076;2023-03-16T00:02:01;99841.41;;;-145.95;100.00
37648;BME280;23490;53.656;10.076;2023-03-16T00:04:26;99876.50;;;-145.95;100.00
37648;BME280;23490;53.656;10.076;2023-03-16T00:06:52;99884.78;;;-145.95;100.00
37648;BME280;23490;53.656;10.076;2023-03-16T00:09:17;99884.78;;;-145.95;100.00
37648;BME280;23490;53.656;10.076;2023-03-16T00:11:42;99884.78;;;-145.95;100.00
37648;BME280;23490;53.656;10.076;2023-03-16T00:14:07;99870.31;;;-145.95;100.00
37648;BME280;23490;53.656;10.076;2023-03-16T00:16:33;99835.19;;;-145.95;100.00
37648;BME280;23490;53.656;10.076;2023-03-16T00:18:59;99833.13;;;-145.95;100.00
37648;BME280;23490;53.656;10.076;2023-03-16T00:21:28;99880.66;;;-145.95;100.00
37648;BME280;23490;53.656;10.076;2023-03-16T00:23:59;99901.31;;;-145.95;100.00
37648;BME280;23490;53.656;10.076;2023-03-16T00:26:24;99868.25;;;-145.95;100.00
37648;BME280;23490;53.656;10.076;2023-03-16T00:28:50;99880.66;;;-145.95;100.00
37648;BME280;23490;53.656;10.076;2023-03-16T00:31:18;99882.72;;;-145.95;100.00
37648;BME280;23490;53.656;10.076;2023-03-16T00:33:43;99876.50;;;-145.95;100.00
37648;BME280;23490;53.656;10.076;2023-03-16T00:36:09;99913.69;;;-145.95;100.00
37648;BME280;23490;53.656;10.076;2023-03-16T00:38:38;99884.78;;;-145.95;100.00
37648;BME280;23490;53.656;10.076;2023-03-16T00:41:05;99884.78;;;-145.95;100.00
37648;BME280;23490;53.656;10.076;2023-03-16T00:43:33;99893.03;;;-145.95;100.00
37648;BME280;23490;53.656;10.076;2023-03-16T00:46:12;99888.91;;;-145.95;100.00
37648;BME280;23490;53.656;10.076;2023-03-16T00:48:40;99872.38;;;-145.95;100.00
37648;BME280;23490;53.656;10.076;2023-03-16T00:51:09;99895.09;;;-145.95;100.00
37648;BME280;23490;53.656;10.076;2023-03-16T00:53:37;99864.13;;;-145.95;100.00
37648;BME280;23490;53.656;10.076;2023-03-16T00:56:03;99884.78;;;-145.95;100.00
37648;BME280;23490;53.656;10.076;2023-03-16T00:58:32;99839.34;;;-145.95;100.00
37648;BME280;23490;53.656;10.076;2023-03-16T01:01:01;99862.06;;;-145.95;100.00
37648;BME280;23490;53.656;10.076;2023-03-16T01:03:27;99886.84;;;-145.95;100.00
37648;BME280;23490;53.656;10.076;2023-03-16T01:05:53;99882.72;;;-145.95;100.00
37648;BME280;23490;53.656;10.076;2023-03-16T01:08:18;99901.31;;;-145.95;100.00
37648;BME280;23490;53.656;10.076;2023-03-16T01:10:43;99866.19;;;-145.95;100.00
37648;BME280;23490;53.656;10.076;2023-03-16T01:13:09;99913.69;;;-145.95;100.00
37648;BME280;23490;53.656;10.076;2023-03-16T01:15:37;99880.66;;;-145.95;100.00
37648;BME280;23490;53.656;10.076;2023-03-16T01:18:02;99893.03;;;-145.95;100.00
37648;BME280;23490;53.656;10.076;2023-03-16T01:20:29;99909.56;;;-145.95;100.00
37648;BME280;23490;53.656;10.076;2023-03-16T01:22:54;99888.91;;;-145.95;100.00
37648;BME280;23490;53.656;10.076;2023-03-16T01:25:19;99924.03;;;-145.95;100.00
37648;BME280;23490;53.656;10.076;2023-03-16T01:27:45;99880.66;;;-145.95;100.00
37648;BME280;23490;53.656;10.076;2023-03-16T01:30:11;99901.31;;;-145.95;100.00
37648;BME280;23490;53.656;10.076;2023-03-16T01:32:37;99911.63;;;-145.95;100.00
37648;BME280;23490;53.656;10.076;2023-03-16T01:35:02;99897.16;;;-145.95;100.00
37648;BME280;23490;53.656;10.076;2023-03-16T01:37:29;99884.78;;;-145.95;100.00
37648;BME280;23490;53.656;10.076;2023-03-16T01:39:54;99895.09;;;-145.95;100.00
37648;BME280;23490;53.656;10.076;2023-03-16T01:42:19;99872.38;;;-145.95;100.00
37648;BME280;23490;53.656;10.076;2023-03-16T01:44:57;99913.69;;;-145.95;100.00
37648;BME280;23490;53.656;10.076;2023-03-16T01:47:26;99893.03;;;-145.95;100.00
37648;BME280;23490;53.656;10.076;2023-03-16T01:49:53;99888.91;;;-145.95;100.00
37648;BME280;23490;53.656;10.076;2023-03-16T01:52:24;99938.47;;;-145.95;100.00
37648;BME280;23490;53.656;10.076;2023-03-16T01:54:58;99926.09;;;-145.95;100.00
37648;BME280;23490;53.656;10.076;2023-03-16T01:57:31;99909.56;;;-145.95;100.00
37648;BME280;23490;53.656;10.076;2023-03-16T02:00:07;99893.03;;;-145.95;100.00
37648;BME280;23490;53.656;10.076;2023-03-16T02:02:38;99888.91;;;-145.95;100.00
37648;BME280;23490;53.656;10.076;2023-03-16T02:05:11;99880.66;;;-145.95;100.00
37648;BME280;23490;53.656;10.076;2023-03-16T02:07:46;99886.84;;;-145.95;100.00
37648;BME280;23490;53.656;10.076;2023-03-16T02:10:14;99942.59;;;-145.95;100.00
37648;BME280;23490;53.656;10.076;2023-03-16T02:12:41;99897.16;;;-145.95;100.00
37648;BME280;23490;53.656;10.076;2023-03-16T02:15:07;99913.69;;;-145.95;100.00
37648;BME280;23490;53.656;10.076;2023-03-16T02:17:34;99880.66;;;-145.95;100.00
37648;BME280;23490;53.656;10.076;2023-03-16T02:22:49;99901.31;;;-145.95;100.00
37648;BME280;23490;53.656;10.076;2023-03-16T02:25:24;99924.03;;;-145.95;100.00
37648;BME280;23490;53.656;10.076;2023-03-16T02:28:09;99926.09;;;-145.95;100.00
37648;BME280;23490;53.656;10.076;2023-03-16T02:30:36;99901.31;;;-145.95;100.00
37648;BME280;23490;53.656;10.076;2023-03-16T02:33:02;99884.78;;;-145.95;100.00
37648;BME280;23490;53.656;10.076;2023-03-16T02:35:30;99905.44;;;-145.95;100.00
37648;BME280;23490;53.656;10.076;2023-03-16T02:37:55;99930.22;;;-145.95;100.00
37648;BME280;23490;53.656;10.076;2023-03-16T02:40:31;99950.88;;;-145.95;100.00
37648;BME280;23490;53.656;10.076;2023-03-16T02:43:17;99909.56;;;-145.95;100.00
37648;BME280;23490;53.656;10.076;2023-03-16T02:45:49;99932.28;;;-145.95;100.00
37648;BME280;23490;53.656;10.076;2023-03-16T02:48:43;99911.63;;;-145.95;100.00
37648;BME280;23490;53.656;10.076;2023-03-16T02:51:09;99955.00;;;-145.95;100.00
37648;BME280;23490;53.656;10.076;2023-03-16T02:53:35;99897.16;;;-145.95;100.00
37648;BME280;23490;53.656;10.076;2023-03-16T02:56:01;99930.22;;;-145.95;100.00
37648;BME280;23490;53.656;10.076;2023-03-16T02:58:29;99938.47;;;-145.95;100.00
37648;BME280;23490;53.656;10.076;2023-03-16T03:00:54;99915.75;;;-145.95;100.00
37648;BME280;23490;53.656;10.076;2023-03-16T03:03:21;99936.41;;;-145.95;100.00
37648;BME280;23490;53.656;10.076;2023-03-16T03:05:46;99901.31;;;-145.95;100.00
37648;BME280;23490;53.656;10.076;2023-03-16T03:08:12;99921.94;;;-145.95;100.00
37648;BME280;23490;53.656;10.076;2023-03-16T03:10:38;99888.91;;;-145.95;100.00
37648;BME280;23490;53.656;10.076;2023-03-16T03:13:04;99930.22;;;-145.95;100.00
37648;BME280;23490;53.656;10.076;2023-03-16T03:15:32;99897.16;;;-145.95;100.00
37648;BME280;23490;53.656;10.076;2023-03-16T03:17:58;99909.56;;;-145.95;100.00
37648;BME280;23490;53.656;10.076;2023-03-16T03:20:24;99913.69;;;-145.95;100.00
37648;BME280;23490;53.656;10.076;2023-03-16T03:22:50;99903.38;;;-145.95;100.00
37648;BME280;23490;53.656;10.076;2023-03-16T03:25:19;99880.66;;;-145.95;100.00
37648;BME280;23490;53.656;10.076;2023-03-16T03:27:47;99932.28;;;-145.95;100.00
37648;BME280;23490;53.656;10.076;2023-03-16T03:30:15;99938.47;;;-145.95;100.00
37648;BME280;23490;53.656;10.076;2023-03-16T03:32:41;99888.91;;;-145.95;100.00
37648;BME280;23490;53.656;10.076;2023-03-16T03:35:10;99946.75;;;-145.95;100.00
37648;BME280;23490;53.656;10.076;2023-03-16T03:37:37;99901.31;;;-145.95;100.00
37648;BME280;23490;53.656;10.076;2023-03-16T03:40:04;99917.81;;;-145.95;100.00
37648;BME280;23490;53.656;10.076;2023-03-16T03:42:29;99897.16;;;-145.95;100.00
37648;BME280;23490;53.656;10.076;2023-03-16T03:44:55;99932.28;;;-145.95;100.00
37648;BME280;23490;53.656;10.076;2023-03-16T03:47:20;99901.31;;;-145.95;100.00
37648;BME280;23490;53.656;10.076;2023-03-16T03:49:46;99944.69;;;-145.95;100.00
37648;BME280;23490;53.656;10.076;2023-03-16T03:52:11;99872.38;;;-145.95;100.00
37648;BME280;23490;53.656;10.076;2023-03-16T03:54:36;99886.84;;;-145.95;100.00
37648;BME280;23490;53.656;10.076;2023-03-16T03:57:03;99942.59;;;-145.95;100.00
37648;BME280;23490;53.656;10.076;2023-03-16T03:59:30;99946.75;;;-145.95;100.00
37648;BME280;23490;53.656;10.076;2023-03-16T04:01:55;99946.75;;;-145.95;100.00
37648;BME280;23490;53.656;10.076;2023-03-16T04:04:21;99888.91;;;-145.95;100.00
37648;BME280;23490;53.656;10.076;2023-03-16T04:06:46;99895.09;;;-145.95;100.00
37648;BME280;23490;53.656;10.076;2023-03-16T04:09:12;99913.69;;;-145.95;100.00
37648;BME280;23490;53.656;10.076;2023-03-16T04:11:38;99905.44;;;-145.95;100.00
37648;BME280;23490;53.656;10.076;2023-03-16T04:14:04;99901.31;;;-145.95;100.00
37648;BME280;23490;53.656;10.076;2023-03-16T04:16:29;99936.41;;;-145.95;100.00
37648;BME280;23490;53.656;10.076;2023-03-16T04:18:55;99936.41;;;-145.95;100.00
37648;BME280;23490;53.656;10.076;2023-03-16T04:21:21;99905.44;;;-145.95;100.00
37648;BME280;23490;53.656;10.076;2023-03-16T04:23:47;99876.50;;;-145.95;100.00
37648;BME280;23490;53.656;10.076;2023-03-16T04:26:13;99899.22;;;-145.95;100.00
37648;BME280;23490;53.656;10.076;2023-03-16T04:28:39;99921.94;;;-145.95;100.00
37648;BME280;23490;53.656;10.076;2023-03-16T04:31:06;99890.97;;;-145.95;100.00
37648;BME280;23490;53.656;10.076;2023-03-16T04:33:33;99895.09;;;-145.95;100.00
37648;BME280;23490;53.656;10.076;2023-03-16T04:35:59;99876.50;;;-145.95;100.00
37648;BME280;23490;53.656;10.076;2023-03-16T04:38:27;99919.88;;;-145.95;100.00
37648;BME280;23490;53.656;10.076;2023-03-16T04:40:52;99913.69;;;-145.95;100.00
37648;BME280;23490;53.656;10.076;2023-03-16T04:43:18;99878.56;;;-145.95;100.00
37648;BME280;23490;53.656;10.076;2023-03-16T04:45:43;99893.03;;;-145.95;100.00
37648;BME280;23490;53.656;10.076;2023-03-16T04:48:09;99901.31;;;-145.95;100.00
37648;BME280;23490;53.656;10.076;2023-03-16T04:50:34;99893.03;;;-145.95;100.00
37648;BME280;23490;53.656;10.076;2023-03-16T04:53:00;99868.25;;;-145.95;100.00
37648;BME280;23490;53.656;10.076;2023-03-16T04:55:25;99909.56;;;-145.95;100.00
37648;BME280;23490;53.656;10.076;2023-03-16T04:57:50;99880.66;;;-145.95;100.00
37648;BME280;23490;53.656;10.076;2023-03-16T05:00:16;99888.91;;;-145.95;100.00
37648;BME280;23490;53.656;10.076;2023-03-16T05:02:48;99888.91;;;-145.95;100.00
37648;BME280;23490;53.656;10.076;2023-03-16T05:05:14;99882.72;;;-145.95;100.00
37648;BME280;23490;53.656;10.076;2023-03-16T05:07:43;99895.09;;;-145.95;100.00
37648;BME280;23490;53.656;10.076;2023-03-16T05:10:10;99901.31;;;-145.95;100.00
37648;BME280;23490;53.656;10.076;2023-03-16T05:12:36;99926.09;;;-145.95;100.00
37648;BME280;23490;53.656;10.076;2023-03-16T05:15:01;99888.91;;;-145.95;100.00
37648;BME280;23490;53.656;10.076;2023-03-16T05:17:27;99888.91;;;-145.95;100.00
37648;BME280;23490;53.656;10.076;2023-03-16T05:19:52;99884.78;;;-145.95;100.00
37648;BME280;23490;53.656;10.076;2023-03-16T05:22:17;99930.22;;;-145.95;100.00
37648;BME280;23490;53.656;10.076;2023-03-16T05:24:43;99888.91;;;-145.95;100.00
37648;BME280;23490;53.656;10.076;2023-03-16T05:27:08;99893.03;;;-145.95;100.00
37648;BME280;23490;53.656;10.076;2023-03-16T05:29:34;99851.72;;;-145.95;100.00
37648;BME280;23490;53.656;10.076;2023-03-16T05:31:59;99888.91;;;-145.95;100.00
37648;BME280;23490;53.656;10.076;2023-03-16T05:34:25;99878.56;;;-145.95;100.00
37648;BME280;23490;53.656;10.076;2023-03-16T05:36:51;99897.16;;;-145.95;100.00
37648;BME280;23490;53.656;10.076;2023-03-16T05:39:16;99888.91;;;-145.95;100.00
37648;BME280;23490;53.656;10.076;2023-03-16T05:41:43;99905.44;;;-145.95;100.00
37648;BME280;23490;53.656;10.076;2023-03-16T05:44:09;99864.13;;;-145.95;100.00
37648;BME280;23490;53.656;10.076;2023-03-16T05:46:34;99917.81;;;-145.95;100.00
37648;BME280;23490;53.656;10.076;2023-03-16T05:49:00;99868.25;;;-145.95;100.00
37648;BME280;23490;53.656;10.076;2023-03-16T05:51:25;99864.13;;;-145.95;100.00
37648;BME280;23490;53.656;10.076;2023-03-16T05:53:51;99855.84;;;-145.95;100.00
37648;BME280;23490;53.656;10.076;2023-03-16T05:56:22;99876.50;;;-145.95;100.00
37648;BME280;23490;53.656;10.076;2023-03-16T05:58:49;99886.84;;;-145.95;100.00
37648;BME280;23490;53.656;10.076;2023-03-16T06:01:14;99897.16;;;-145.95;100.00
37648;BME280;23490;53.656;10.076;2023-03-16T06:03:40;99880.66;;;-145.95;99.83
37648;BME280;23490;53.656;10.076;2023-03-16T06:06:06;99855.84;;;-145.95;100.00
37648;BME280;23490;53.656;10.076;2023-03-16T06:08:31;99876.50;;;-145.95;99.85
37648;BME280;23490;53.656;10.076;2023-03-16T06:10:56;99855.84;;;-145.95;99.73
37648;BME280;23490;53.656;10.076;2023-03-16T06:13:22;99876.50;;;-145.95;100.00
37648;BME280;23490;53.656;10.076;2023-03-16T06:15:48;99868.25;;;-145.95;99.23
37648;BME280;23490;53.656;10.076;2023-03-16T06:18:13;99870.31;;;-145.95;98.96
37648;BME280;23490;53.656;10.076;2023-03-16T06:20:39;99893.03;;;-145.95;97.56
37648;BME280;23490;53.656;10.076;2023-03-16T06:23:04;99870.31;;;-145.95;97.32
37648;BME280;23490;53.656;10.076;2023-03-16T06:25:29;99853.78;;;-145.95;98.17
37648;BME280;23490;53.656;10.076;2023-03-16T06:27:56;99843.47;;;-145.95;97.09
37648;BME280;23490;53.656;10.076;2023-03-16T06:30:21;99860.00;;;-145.95;96.13
37648;BME280;23490;53.656;10.076;2023-03-16T06:32:47;99880.66;;;-145.95;96.19
37648;BME280;23490;53.656;10.076;2023-03-16T06:35:12;99822.81;;;-145.95;96.67
37648;BME280;23490;53.656;10.076;2023-03-16T06:37:38;99847.59;;;-145.95;94.77
37648;BME280;23490;53.656;10.076;2023-03-16T06:40:04;99798.03;;;-145.95;95.11
37648;BME280;23490;53.656;10.076;2023-03-16T06:42:30;99818.69;;;-145.95;95.21
37648;BME280;23490;53.656;10.076;2023-03-16T06:44:55;99835.19;;;-145.95;94.67
37648;BME280;23490;53.656;10.076;2023-03-16T06:47:21;99806.28;;;-145.95;94.12
37648;BME280;23490;53.656;10.076;2023-03-16T06:49:46;99818.69;;;-145.95;94.18
37648;BME280;23490;53.656;10.076;2023-03-16T06:52:12;99798.03;;;-145.95;92.47
37648;BME280;23490;53.656;10.076;2023-03-16T06:54:39;99814.56;;;-145.95;91.46
37648;BME280;23490;53.656;10.076;2023-03-16T06:57:05;99812.47;;;-145.95;92.43
37648;BME280;23490;53.656;10.076;2023-03-16T06:59:31;99806.28;;;-145.95;91.70
37648;BME280;23490;53.656;10.076;2023-03-16T07:01:56;99806.28;;;-145.95;90.81
37648;BME280;23490;53.656;10.076;2023-03-16T07:04:21;99793.91;;;-145.95;88.93
37648;BME280;23490;53.656;10.076;2023-03-16T07:06:47;99798.03;;;-145.95;89.29
37648;BME280;23490;53.656;10.076;2023-03-16T07:09:12;99798.03;;;-145.95;89.36
37648;BME280;23490;53.656;10.076;2023-03-16T07:11:38;99831.06;;;-145.95;89.34
37648;BME280;23490;53.656;10.076;2023-03-16T07:14:04;99789.75;;;-145.95;88.61
37648;BME280;23490;53.656;10.076;2023-03-16T07:16:29;99810.41;;;-145.95;88.28
37648;BME280;23490;53.656;10.076;2023-03-16T07:18:54;99789.75;;;-145.95;89.00
37648;BME280;23490;53.656;10.076;2023-03-16T07:21:20;99798.03;;;-145.95;86.42
37648;BME280;23490;53.656;10.076;2023-03-16T07:23:46;99783.56;;;-145.95;86.20
37648;BME280;23490;53.656;10.076;2023-03-16T07:26:11;99764.97;;;-145.95;85.41
37648;BME280;23490;53.656;10.076;2023-03-16T07:28:37;99764.97;;;-145.95;86.50
37648;BME280;23490;53.656;10.076;2023-03-16T07:31:03;99764.97;;;-145.95;85.33
37648;BME280;23490;53.656;10.076;2023-03-16T07:33:30;99713.34;;;-145.95;85.45
37648;BME280;23490;53.656;10.076;2023-03-16T07:35:56;99756.72;;;-145.95;84.44
37648;BME280;23490;53.656;10.076;2023-03-16T07:38:21;99769.13;;;-145.95;83.69
37648;BME280;23490;53.656;10.076;2023-03-16T07:40:47;99752.59;;;-145.95;83.60
37648;BME280;23490;53.656;10.076;2023-03-16T07:43:12;99748.44;;;-145.95;83.16
37648;BME280;23490;53.656;10.076;2023-03-16T07:45:37;99703.00;;;-145.95;82.07
37648;BME280;23490;53.656;10.076;2023-03-16T07:48:03;99752.59;;;-145.95;83.04
37648;BME280;23490;53.656;10.076;2023-03-16T07:50:28;99731.94;;;-145.95;85.07
37648;BME280;23490;53.656;10.076;2023-03-16T07:52:53;99731.94;;;-145.95;83.34
37648;BME280;23490;53.656;10.076;2023-03-16T07:55:19;99696.81;;;-145.95;81.21
37648;BME280;23490;53.656;10.076;2023-03-16T07:57:44;99676.16;;;-145.95;80.34
37648;BME280;23490;53.656;10.076;2023-03-16T08:00:13;99707.16;;;-145.95;80.23
37648;BME280;23490;53.656;10.076;2023-03-16T08:02:39;99694.75;;;-145.95;78.89
37648;BME280;23490;53.656;10.076;2023-03-16T08:05:05;99665.84;;;-145.95;78.40
37648;BME280;23490;53.656;10.076;2023-03-16T08:07:30;99665.84;;;-145.95;75.44
37648;BME280;23490;53.656;10.076;2023-03-16T08:09:56;99636.94;;;-145.95;74.98
37648;BME280;23490;53.656;10.076;2023-03-16T08:12:22;99636.94;;;-145.95;72.48
37648;BME280;23490;53.656;10.076;2023-03-16T08:14:47;99669.97;;;-145.95;71.64
37648;BME280;23490;53.656;10.076;2023-03-16T08:17:12;99620.41;;;-145.95;70.91
37648;BME280;23490;53.656;10.076;2023-03-16T08:19:38;99566.69;;;-145.95;70.47
37648;BME280;23490;53.656;10.076;2023-03-16T08:22:04;99583.22;;;-145.95;69.88
37648;BME280;23490;53.656;10.076;2023-03-16T08:24:30;99554.31;;;-145.95;69.41
37648;BME280;23490;53.656;10.076;2023-03-16T08:26:56;99554.31;;;-145.95;66.98
37648;BME280;23490;53.656;10.076;2023-03-16T08:29:23;99562.56;;;-145.95;65.44
37648;BME280;23490;53.656;10.076;2023-03-16T08:31:49;99599.75;;;-145.95;64.99
37648;BME280;23490;53.656;10.076;2023-03-16T08:34:14;99558.44;;;-145.95;66.76
37648;BME280;23490;53.656;10.076;2023-03-16T08:36:40;99550.19;;;-145.95;65.71
37648;BME280;23490;53.656;10.076;2023-03-16T08:39:08;99525.41;;;-145.95;64.57
37648;BME280;23490;53.656;10.076;2023-03-16T08:41:33;99541.91;;;-145.95;64.59
37648;BME280;23490;53.656;10.076;2023-03-16T08:43:59;99504.75;;;-145.95;65.72
37648;BME280;23490;53.656;10.076;2023-03-16T08:46:25;99484.09;;;-145.95;63.61
37648;BME280;23490;53.656;10.076;2023-03-16T08:48:50;99475.84;;;-145.95;63.31
37648;BME280;23490;53.656;10.076;2023-03-16T08:51:17;99424.19;;;-145.95;60.98
37648;BME280;23490;53.656;10.076;2023-03-16T08:53:43;99418.00;;;-145.95;61.11
37648;BME280;23490;53.656;10.076;2023-03-16T08:56:11;99430.41;;;-145.95;60.98
37648;BME280;23490;53.656;10.076;2023-03-16T08:58:38;99368.44;;;-145.95;60.85
37648;BME280;23490;53.656;10.076;2023-03-16T09:01:04;99347.78;;;-145.95;58.44
37648;BME280;23490;53.656;10.076;2023-03-16T09:03:32;99298.22;;;-145.95;58.11
37648;BME280;23490;53.656;10.076;2023-03-16T09:06:01;99314.75;;;-145.95;57.33
37648;BME280;23490;53.656;10.076;2023-03-16T09:08:27;99279.63;;;-145.95;57.26
37648;BME280;23490;53.656;10.076;2023-03-16T09:11:00;99298.22;;;-145.95;56.95
37648;BME280;23490;53.656;10.076;2023-03-16T09:13:27;99261.06;;;-145.95;55.81
37648;BME280;23490;53.656;10.076;2023-03-16T09:15:53;99300.28;;;-145.95;56.55
37648;BME280;23490;53.656;10.076;2023-03-16T09:18:18;99289.97;;;-145.95;55.23
37648;BME280;23490;53.656;10.076;2023-03-16T09:20:45;99335.41;;;-145.95;55.53
37648;BME280;23490;53.656;10.076;2023-03-16T09:23:12;99294.09;;;-145.95;55.38
37648;BME280;23490;53.656;10.076;2023-03-16T09:25:38;99223.88;;;-145.95;55.00
37648;BME280;23490;53.656;10.076;2023-03-16T09:28:04;99256.94;;;-145.95;55.20
37648;BME280;23490;53.656;10.076;2023-03-16T09:30:29;99172.25;;;-145.95;54.33
37648;BME280;23490;53.656;10.076;2023-03-16T09:32:54;99190.84;;;-145.95;53.50
37648;BME280;23490;53.656;10.076;2023-03-16T09:35:20;99199.09;;;-145.95;53.89
37648;BME280;23490;53.656;10.076;2023-03-16T09:37:45;99147.47;;;-145.95;52.93
37648;BME280;23490;53.656;10.076;2023-03-16T09:40:21;99157.81;;;-145.95;52.41
37648;BME280;23490;53.656;10.076;2023-03-16T09:42:58;99087.59;;;-145.95;52.00
37648;BME280;23490;53.656;10.076;2023-03-16T09:48:23;98963.69;;;-145.95;50.04
37648;BME280;23490;53.656;10.076;2023-03-16T09:50:52;99015.31;;;-145.95;49.04
37648;BME280;23490;53.656;10.076;2023-03-16T09:53:27;98980.22;;;-145.95;48.29
37648;BME280;23490;53.656;10.076;2023-03-16T09:56:06;98971.94;;;-145.95;48.92
37648;BME280;23490;53.656;10.076;2023-03-16T09:58:34;98910.00;;;-145.95;48.62
37648;BME280;23490;53.656;10.076;2023-03-16T10:06:47;99050.41;;;-145.95;47.87
37648;BME280;23490;53.656;10.076;2023-03-16T10:09:23;99011.19;;;-145.95;47.30
37648;BME280;23490;53.656;10.076;2023-03-16T10:11:54;99083.47;;;-145.95;47.47
37648;BME280;23490;53.656;10.076;2023-03-16T10:17:18;99104.09;;;-145.95;47.10
37648;BME280;23490;53.656;10.076;2023-03-16T10:19:52;99116.50;;;-145.95;47.08
37648;BME280;23490;53.656;10.076;2023-03-16T10:22:22;99054.56;;;-145.95;47.72
37648;BME280;23490;53.656;10.076;2023-03-16T10:25:18;99066.94;;;-145.95;47.83
37648;BME280;23490;53.656;10.076;2023-03-16T10:27:45;99071.06;;;-145.95;47.86
37648;BME280;23490;53.656;10.076;2023-03-16T10:32:44;98926.53;;;-145.95;46.64
37648;BME280;23490;53.656;10.076;2023-03-16T10:35:39;98959.56;;;-145.95;48.63
37648;BME280;23490;53.656;10.076;2023-03-16T10:43:56;98876.97;;;-145.95;44.47
37648;BME280;23490;53.656;10.076;2023-03-16T10:46:24;98839.78;;;-145.95;42.75
37648;BME280;23490;53.656;10.076;2023-03-16T10:48:58;98922.41;;;-145.95;41.03
37648;BME280;23490;53.656;10.076;2023-03-16T10:51:27;98839.78;;;-145.95;40.95
37648;BME280;23490;53.656;10.076;2023-03-16T10:53:56;98926.53;;;-145.95;41.15
37648;BME280;23490;53.656;10.076;2023-03-16T10:56:32;99002.94;;;-145.95;39.67
37648;BME280;23490;53.656;10.076;2023-03-16T10:58:59;99050.41;;;-145.95;39.91
37648;BME280;23490;53.656;10.076;2023-03-16T11:01:27;99091.72;;;-145.95;39.39
37648;BME280;23490;53.656;10.076;2023-03-16T11:03:54;99091.72;;;-145.95;39.87
37648;BME280;23490;53.656;10.076;2023-03-16T11:06:29;99033.91;;;-145.95;40.23
37648;BME280;23490;53.656;10.076;2023-03-16T11:09:09;99052.47;;;-145.95;39.73
37648;BME280;23490;53.656;10.076;2023-03-16T11:11:36;99075.19;;;-145.95;39.17
37648;BME280;23490;53.656;10.076;2023-03-16T11:14:08;98976.09;;;-145.95;39.20
37648;BME280;23490;53.656;10.076;2023-03-16T11:16:52;98976.09;;;-145.95;39.42
37648;BME280;23490;53.656;10.076;2023-03-16T11:19:32;98959.56;;;-145.95;38.83
37648;BME280;23490;53.656;10.076;2023-03-16T11:22:05;98984.34;;;-145.95;37.80
37648;BME280;23490;53.656;10.076;2023-03-16T11:32:53;98852.19;;;-145.95;35.28
37648;BME280;23490;53.656;10.076;2023-03-16T11:35:23;98843.94;;;-145.95;35.54
37648;BME280;23490;53.656;10.076;2023-03-16T11:38:02;98806.75;;;-145.95;35.34
37648;BME280;23490;53.656;10.076;2023-03-16T11:40:42;98852.19;;;-145.95;35.65
37648;BME280;23490;53.656;10.076;2023-03-16T11:48:31;98825.34;;;-145.95;33.01
37648;BME280;23490;53.656;10.076;2023-03-16T12:02:18;98540.41;;;-145.95;32.44
37648;BME280;23490;53.656;10.076;2023-03-16T12:05:02;98480.53;;;-145.95;32.02
37648;BME280;23490;53.656;10.076;2023-03-16T12:10:22;98643.63;;;-145.95;31.74
37648;BME280;23490;53.656;10.076;2023-03-16T12:15:34;98492.91;;;-145.95;30.43
37648;BME280;23490;53.656;10.076;2023-03-16T12:18:31;98623.00;;;-145.95;30.51
37648;BME280;23490;53.656;10.076;2023-03-16T12:21:03;98443.38;;;-145.95;30.39
37648;BME280;23490;53.656;10.076;2023-03-16T12:26:01;98674.59;;;-145.95;31.74
37648;BME280;23490;53.656;10.076;2023-03-16T12:28:28;98744.81;;;-145.95;31.99
37648;BME280;23490;53.656;10.076;2023-03-16T12:36:16;98786.09;;;-145.95;32.98
37648;BME280;23490;53.656;10.076;2023-03-16T12:41:34;98839.78;;;-145.95;33.95
37648;BME280;23490;53.656;10.076;2023-03-16T12:44:42;98794.38;;;-145.95;33.28
37648;BME280;23490;53.656;10.076;2023-03-16T12:49:45;98819.16;;;-145.95;33.79
37648;BME280;23490;53.656;10.076;2023-03-16T12:52:12;98901.75;;;-145.95;34.71
37648;BME280;23490;53.656;10.076;2023-03-16T12:54:53;98829.47;;;-145.95;33.74
37648;BME280;23490;53.656;10.076;2023-03-16T12:57:23;98575.50;;;-145.95;33.12
37648;BME280;23490;53.656;10.076;2023-03-16T12:59:53;98437.16;;;-145.95;32.00
37648;BME280;23490;53.656;10.076;2023-03-16T13:02:30;98371.09;;;-145.95;31.54
37648;BME280;23490;53.656;10.076;2023-03-16T13:05:02;98748.94;;;-145.95;31.48
37648;BME280;23490;53.656;10.076;2023-03-16T13:07:32;98786.09;;;-145.95;32.09
37648;BME280;23490;53.656;10.076;2023-03-16T13:10:09;98872.84;;;-145.95;33.40
37648;BME280;23490;53.656;10.076;2023-03-16T13:12:38;98765.47;;;-145.95;34.34
37648;BME280;23490;53.656;10.076;2023-03-16T13:15:28;98831.53;;;-145.95;34.04
37648;BME280;23490;53.656;10.076;2023-03-16T13:23:22;98860.44;;;-145.95;33.97
37648;BME280;23490;53.656;10.076;2023-03-16T13:26:14;98786.09;;;-145.95;33.77
37648;BME280;23490;53.656;10.076;2023-03-16T13:28:43;98800.56;;;-145.95;33.56
37648;BME280;23490;53.656;10.076;2023-03-16T13:31:26;98802.63;;;-145.95;33.27
37648;BME280;23490;53.656;10.076;2023-03-16T13:33:55;98790.25;;;-145.95;33.67
37648;BME280;23490;53.656;10.076;2023-03-16T13:36:28;98765.47;;;-145.95;33.64
37648;BME280;23490;53.656;10.076;2023-03-16T13:38:56;98757.19;;;-145.95;33.57
37648;BME280;23490;53.656;10.076;2023-03-16T13:41:27;98835.66;;;-145.95;33.12
37648;BME280;23490;53.656;10.076;2023-03-16T13:43:53;98910.00;;;-145.95;33.61